sensor_id;sensor_type;location;lat;lon;timestamp;P1;durP1;ratioP1;P2;durP2;ratioP2
29280;SDS011;25048;49.590;11.026;2022-07-10T00:00:53;4.15;;;3.33;;
29280;SDS011;25048;49.590;11.026;2022-07-10T00:03:20;4.75;;;3.87;;
29280;SDS011;25048;49.590;11.026;2022-07-10T00:05:49;3.70;;;3.37;;
29280;SDS011;25048;49.590;11.026;2022-07-10T00:08:16;3.85;;;3.45;;
29280;SDS011;25048;49.590;11.026;2022-07-10T00:10:44;4.55;;;3.27;;
29280;SDS011;25048;49.590;11.026;2022-07-10T00:13:11;3.35;;;3.10;;
29280;SDS011;25048;49.590;11.026;2022-07-10T00:15:39;5.10;;;3.83;;
29280;SDS011;25048;49.590;11.026;2022-07-10T00:18:06;6.67;;;3.90;;
29280;SDS011;25048;49.590;11.026;2022-07-10T00:20:34;3.90;;;3.50;;
29280;SDS011;25048;49.590;11.026;2022-07-10T00:23:02;4.22;;;3.83;;
29280;SDS011;25048;49.590;11.026;2022-07-10T00:25:30;4.17;;;3.77;;
29280;SDS011;25048;49.590;11.026;2022-07-10T00:27:58;4.08;;;3.67;;
29280;SDS011;25048;49.590;11.026;2022-07-10T00:30:25;4.08;;;3.47;;
29280;SDS011;25048;49.590;11.026;2022-07-10T00:32:53;4.33;;;3.92;;
29280;SDS011;25048;49.590;11.026;2022-07-10T00:35:21;4.17;;;3.55;;
29280;SDS011;25048;49.590;11.026;2022-07-10T00:37:49;5.90;;;3.87;;
29280;SDS011;25048;49.590;11.026;2022-07-10T00:40:16;6.47;;;3.40;;
29280;SDS011;25048;49.590;11.026;2022-07-10T00:42:44;4.08;;;3.52;;
29280;SDS011;25048;49.590;11.026;2022-07-10T00:45:11;4.40;;;4.00;;
29280;SDS011;25048;49.590;11.026;2022-07-10T00:47:39;3.55;;;3.22;;
29280;SDS011;25048;49.590;11.026;2022-07-10T00:50:06;4.12;;;3.67;;
29280;SDS011;25048;49.590;11.026;2022-07-10T00:52:35;4.50;;;3.58;;
29280;SDS011;25048;49.590;11.026;2022-07-10T00:55:05;4.90;;;3.92;;
29280;SDS011;25048;49.590;11.026;2022-07-10T00:57:34;4.47;;;3.50;;
29280;SDS011;25048;49.590;11.026;2022-07-10T01:00:04;4.17;;;3.27;;
29280;SDS011;25048;49.590;11.026;2022-07-10T01:02:32;4.50;;;3.67;;
29280;SDS011;25048;49.590;11.026;2022-07-10T01:04:59;3.70;;;3.35;;
29280;SDS011;25048;49.590;11.026;2022-07-10T01:07:27;3.83;;;3.52;;
29280;SDS011;25048;49.590;11.026;2022-07-10T01:09:57;4.10;;;3.70;;
29280;SDS011;25048;49.590;11.026;2022-07-10T01:12:25;5.35;;;3.52;;
29280;SDS011;25048;49.590;11.026;2022-07-10T01:14:54;5.80;;;3.50;;
29280;SDS011;25048;49.590;11.026;2022-07-10T01:17:22;4.62;;;3.30;;
29280;SDS011;25048;49.590;11.026;2022-07-10T01:19:50;4.78;;;3.98;;
29280;SDS011;25048;49.590;11.026;2022-07-10T01:22:17;5.62;;;3.92;;
29280;SDS011;25048;49.590;11.026;2022-07-10T01:24:45;5.22;;;3.98;;
29280;SDS011;25048;49.590;11.026;2022-07-10T01:27:13;5.45;;;3.83;;
29280;SDS011;25048;49.590;11.026;2022-07-10T01:29:40;7.97;;;3.50;;
29280;SDS011;25048;49.590;11.026;2022-07-10T01:32:08;4.72;;;3.70;;
29280;SDS011;25048;49.590;11.026;2022-07-10T01:34:36;6.03;;;4.17;;
29280;SDS011;25048;49.590;11.026;2022-07-10T01:37:03;5.78;;;3.37;;
29280;SDS011;25048;49.590;11.026;2022-07-10T01:39:31;5.90;;;3.73;;
29280;SDS011;25048;49.590;11.026;2022-07-10T01:41:58;4.08;;;3.42;;
29280;SDS011;25048;49.590;11.026;2022-07-10T01:44:26;3.60;;;3.17;;
29280;SDS011;25048;49.590;11.026;2022-07-10T01:46:53;3.72;;;3.20;;
29280;SDS011;25048;49.590;11.026;2022-07-10T01:49:21;3.80;;;3.40;;
29280;SDS011;25048;49.590;11.026;2022-07-10T01:51:48;5.62;;;3.33;;
29280;SDS011;25048;49.590;11.026;2022-07-10T01:54:16;3.77;;;3.37;;
29280;SDS011;25048;49.590;11.026;2022-07-10T01:56:44;4.58;;;3.35;;
29280;SDS011;25048;49.590;11.026;2022-07-10T01:59:11;6.87;;;2.98;;
29280;SDS011;25048;49.590;11.026;2022-07-10T02:01:39;4.00;;;2.83;;
29280;SDS011;25048;49.590;11.026;2022-07-10T02:04:06;10.87;;;3.20;;
29280;SDS011;25048;49.590;11.026;2022-07-10T02:06:52;6.58;;;3.08;;
29280;SDS011;25048;49.590;11.026;2022-07-10T02:09:19;4.20;;;2.50;;
29280;SDS011;25048;49.590;11.026;2022-07-10T02:11:46;3.07;;;2.10;;
29280;SDS011;25048;49.590;11.026;2022-07-10T02:14:14;3.10;;;2.13;;
29280;SDS011;25048;49.590;11.026;2022-07-10T02:16:42;2.98;;;2.65;;
29280;SDS011;25048;49.590;11.026;2022-07-10T02:19:10;5.67;;;2.13;;
29280;SDS011;25048;49.590;11.026;2022-07-10T02:21:38;3.47;;;2.13;;
29280;SDS011;25048;49.590;11.026;2022-07-10T02:24:05;3.60;;;2.40;;
29280;SDS011;25048;49.590;11.026;2022-07-10T02:26:33;6.33;;;2.10;;
29280;SDS011;25048;49.590;11.026;2022-07-10T02:29:00;5.40;;;2.07;;
29280;SDS011;25048;49.590;11.026;2022-07-10T02:31:28;4.92;;;2.37;;
29280;SDS011;25048;49.590;11.026;2022-07-10T02:33:55;5.85;;;2.27;;
29280;SDS011;25048;49.590;11.026;2022-07-10T02:36:23;5.00;;;2.67;;
29280;SDS011;25048;49.590;11.026;2022-07-10T02:38:50;4.90;;;2.27;;
29280;SDS011;25048;49.590;11.026;2022-07-10T02:41:17;3.23;;;2.47;;
29280;SDS011;25048;49.590;11.026;2022-07-10T02:43:45;6.87;;;2.80;;
29280;SDS011;25048;49.590;11.026;2022-07-10T02:46:12;5.17;;;2.10;;
29280;SDS011;25048;49.590;11.026;2022-07-10T02:48:40;2.73;;;2.30;;
29280;SDS011;25048;49.590;11.026;2022-07-10T02:51:07;7.03;;;2.00;;
29280;SDS011;25048;49.590;11.026;2022-07-10T02:53:35;3.33;;;2.15;;
29280;SDS011;25048;49.590;11.026;2022-07-10T02:56:03;3.62;;;1.85;;
29280;SDS011;25048;49.590;11.026;2022-07-10T02:58:31;9.28;;;1.87;;
29280;SDS011;25048;49.590;11.026;2022-07-10T03:00:59;2.12;;;1.60;;
29280;SDS011;25048;49.590;11.026;2022-07-10T03:03:27;9.85;;;2.47;;
29280;SDS011;25048;49.590;11.026;2022-07-10T03:05:55;5.95;;;2.00;;
29280;SDS011;25048;49.590;11.026;2022-07-10T03:08:22;5.17;;;2.00;;
29280;SDS011;25048;49.590;11.026;2022-07-10T03:10:50;4.00;;;1.63;;
29280;SDS011;25048;49.590;11.026;2022-07-10T03:13:17;4.60;;;1.73;;
29280;SDS011;25048;49.590;11.026;2022-07-10T03:15:44;4.20;;;2.00;;
29280;SDS011;25048;49.590;11.026;2022-07-10T03:18:12;6.23;;;2.60;;
29280;SDS011;25048;49.590;11.026;2022-07-10T03:20:39;6.30;;;1.90;;
29280;SDS011;25048;49.590;11.026;2022-07-10T03:23:07;3.57;;;1.90;;
29280;SDS011;25048;49.590;11.026;2022-07-10T03:25:34;4.22;;;1.80;;
29280;SDS011;25048;49.590;11.026;2022-07-10T03:28:02;4.53;;;1.70;;
29280;SDS011;25048;49.590;11.026;2022-07-10T03:30:29;3.37;;;1.70;;
29280;SDS011;25048;49.590;11.026;2022-07-10T03:32:57;9.67;;;2.13;;
29280;SDS011;25048;49.590;11.026;2022-07-10T03:35:25;5.73;;;1.67;;
29280;SDS011;25048;49.590;11.026;2022-07-10T03:37:52;4.30;;;1.60;;
29280;SDS011;25048;49.590;11.026;2022-07-10T03:40:20;7.83;;;1.90;;
29280;SDS011;25048;49.590;11.026;2022-07-10T03:42:47;3.98;;;1.55;;
29280;SDS011;25048;49.590;11.026;2022-07-10T03:45:15;3.43;;;1.73;;
29280;SDS011;25048;49.590;11.026;2022-07-10T03:47:42;3.97;;;1.60;;
29280;SDS011;25048;49.590;11.026;2022-07-10T03:50:10;2.13;;;1.70;;
29280;SDS011;25048;49.590;11.026;2022-07-10T03:52:38;3.37;;;1.93;;
29280;SDS011;25048;49.590;11.026;2022-07-10T03:55:05;4.83;;;1.93;;
29280;SDS011;25048;49.590;11.026;2022-07-10T03:57:33;4.70;;;2.00;;
29280;SDS011;25048;49.590;11.026;2022-07-10T04:00:25;3.63;;;1.77;;
29280;SDS011;25048;49.590;11.026;2022-07-10T04:03:01;3.70;;;1.52;;
29280;SDS011;25048;49.590;11.026;2022-07-10T04:05:29;5.30;;;1.90;;
29280;SDS011;25048;49.590;11.026;2022-07-10T04:07:58;3.10;;;1.20;;
29280;SDS011;25048;49.590;11.026;2022-07-10T04:10:26;4.77;;;2.10;;
29280;SDS011;25048;49.590;11.026;2022-07-10T04:12:55;4.17;;;1.97;;
29280;SDS011;25048;49.590;11.026;2022-07-10T04:15:23;3.87;;;1.70;;
29280;SDS011;25048;49.590;11.026;2022-07-10T04:17:50;8.67;;;1.90;;
29280;SDS011;25048;49.590;11.026;2022-07-10T04:20:18;3.47;;;1.50;;
29280;SDS011;25048;49.590;11.026;2022-07-10T04:22:47;3.90;;;1.67;;
29280;SDS011;25048;49.590;11.026;2022-07-10T04:25:15;3.67;;;1.60;;
29280;SDS011;25048;49.590;11.026;2022-07-10T04:27:42;3.53;;;1.50;;
29280;SDS011;25048;49.590;11.026;2022-07-10T04:30:10;1.43;;;1.00;;
29280;SDS011;25048;49.590;11.026;2022-07-10T04:32:37;4.23;;;1.53;;
29280;SDS011;25048;49.590;11.026;2022-07-10T04:35:05;1.87;;;1.20;;
29280;SDS011;25048;49.590;11.026;2022-07-10T04:37:32;2.50;;;1.20;;
29280;SDS011;25048;49.590;11.026;2022-07-10T04:40:00;6.20;;;1.27;;
29280;SDS011;25048;49.590;11.026;2022-07-10T04:42:28;9.47;;;1.77;;
29280;SDS011;25048;49.590;11.026;2022-07-10T04:44:56;3.47;;;1.00;;
29280;SDS011;25048;49.590;11.026;2022-07-10T04:47:23;6.40;;;1.80;;
29280;SDS011;25048;49.590;11.026;2022-07-10T04:49:51;2.03;;;1.27;;
29280;SDS011;25048;49.590;11.026;2022-07-10T04:52:18;3.00;;;1.20;;
29280;SDS011;25048;49.590;11.026;2022-07-10T04:54:46;4.10;;;1.40;;
29280;SDS011;25048;49.590;11.026;2022-07-10T04:57:13;2.47;;;1.10;;
29280;SDS011;25048;49.590;11.026;2022-07-10T04:59:41;6.20;;;1.60;;
29280;SDS011;25048;49.590;11.026;2022-07-10T05:02:08;1.77;;;1.07;;
29280;SDS011;25048;49.590;11.026;2022-07-10T05:04:36;3.60;;;1.50;;
29280;SDS011;25048;49.590;11.026;2022-07-10T05:07:03;3.63;;;1.00;;
29280;SDS011;25048;49.590;11.026;2022-07-10T05:09:31;1.90;;;1.15;;
29280;SDS011;25048;49.590;11.026;2022-07-10T05:11:58;3.33;;;1.30;;
29280;SDS011;25048;49.590;11.026;2022-07-10T05:14:26;4.17;;;1.10;;
29280;SDS011;25048;49.590;11.026;2022-07-10T05:16:53;1.53;;;1.37;;
29280;SDS011;25048;49.590;11.026;2022-07-10T05:19:21;2.93;;;1.03;;
29280;SDS011;25048;49.590;11.026;2022-07-10T05:21:48;3.27;;;1.10;;
29280;SDS011;25048;49.590;11.026;2022-07-10T05:24:16;8.27;;;1.33;;
29280;SDS011;25048;49.590;11.026;2022-07-10T05:26:43;3.53;;;1.10;;
29280;SDS011;25048;49.590;11.026;2022-07-10T05:29:11;4.10;;;1.10;;
29280;SDS011;25048;49.590;11.026;2022-07-10T05:31:39;3.97;;;1.30;;
29280;SDS011;25048;49.590;11.026;2022-07-10T05:34:06;1.67;;;0.93;;
29280;SDS011;25048;49.590;11.026;2022-07-10T05:36:34;11.63;;;1.30;;
29280;SDS011;25048;49.590;11.026;2022-07-10T05:39:01;5.47;;;1.67;;
29280;SDS011;25048;49.590;11.026;2022-07-10T05:41:29;2.33;;;0.75;;
29280;SDS011;25048;49.590;11.026;2022-07-10T05:43:59;5.73;;;1.03;;
29280;SDS011;25048;49.590;11.026;2022-07-10T05:46:26;4.33;;;1.20;;
29280;SDS011;25048;49.590;11.026;2022-07-10T05:48:54;2.17;;;0.80;;
29280;SDS011;25048;49.590;11.026;2022-07-10T05:51:21;2.20;;;0.80;;
29280;SDS011;25048;49.590;11.026;2022-07-10T05:53:49;4.50;;;0.90;;
29280;SDS011;25048;49.590;11.026;2022-07-10T05:56:16;4.33;;;0.85;;
29280;SDS011;25048;49.590;11.026;2022-07-10T05:58:44;6.07;;;1.40;;
29280;SDS011;25048;49.590;11.026;2022-07-10T06:01:11;4.25;;;0.80;;
29280;SDS011;25048;49.590;11.026;2022-07-10T06:03:39;2.12;;;0.90;;
29280;SDS011;25048;49.590;11.026;2022-07-10T06:06:06;5.13;;;1.10;;
29280;SDS011;25048;49.590;11.026;2022-07-10T06:08:34;2.67;;;0.80;;
29280;SDS011;25048;49.590;11.026;2022-07-10T06:11:01;5.30;;;1.02;;
29280;SDS011;25048;49.590;11.026;2022-07-10T06:13:29;3.30;;;1.07;;
29280;SDS011;25048;49.590;11.026;2022-07-10T06:15:56;3.75;;;1.02;;
29280;SDS011;25048;49.590;11.026;2022-07-10T06:18:24;6.28;;;1.00;;
29280;SDS011;25048;49.590;11.026;2022-07-10T06:20:51;5.15;;;0.93;;
29280;SDS011;25048;49.590;11.026;2022-07-10T06:23:19;2.85;;;1.10;;
29280;SDS011;25048;49.590;11.026;2022-07-10T06:25:46;3.37;;;0.88;;
29280;SDS011;25048;49.590;11.026;2022-07-10T06:28:17;2.60;;;0.90;;
29280;SDS011;25048;49.590;11.026;2022-07-10T06:30:45;2.95;;;1.10;;
29280;SDS011;25048;49.590;11.026;2022-07-10T06:33:13;2.42;;;0.88;;
29280;SDS011;25048;49.590;11.026;2022-07-10T06:35:40;5.72;;;1.22;;
29280;SDS011;25048;49.590;11.026;2022-07-10T06:38:08;2.35;;;0.80;;
29280;SDS011;25048;49.590;11.026;2022-07-10T06:40:36;3.37;;;1.00;;
29280;SDS011;25048;49.590;11.026;2022-07-10T06:43:04;3.87;;;1.02;;
29280;SDS011;25048;49.590;11.026;2022-07-10T06:45:32;2.12;;;0.90;;
29280;SDS011;25048;49.590;11.026;2022-07-10T06:47:59;1.50;;;0.82;;
29280;SDS011;25048;49.590;11.026;2022-07-10T06:50:30;6.50;;;2.50;;
29280;SDS011;25048;49.590;11.026;2022-07-10T06:52:59;5.12;;;1.12;;
29280;SDS011;25048;49.590;11.026;2022-07-10T06:55:27;4.50;;;0.90;;
29280;SDS011;25048;49.590;11.026;2022-07-10T06:57:56;1.17;;;1.00;;
29280;SDS011;25048;49.590;11.026;2022-07-10T07:00:24;2.00;;;0.72;;
29280;SDS011;25048;49.590;11.026;2022-07-10T07:02:52;1.37;;;0.70;;
29280;SDS011;25048;49.590;11.026;2022-07-10T07:05:20;3.08;;;1.00;;
29280;SDS011;25048;49.590;11.026;2022-07-10T07:07:47;4.35;;;0.70;;
29280;SDS011;25048;49.590;11.026;2022-07-10T07:10:15;3.30;;;0.75;;
29280;SDS011;25048;49.590;11.026;2022-07-10T07:12:42;2.50;;;0.72;;
29280;SDS011;25048;49.590;11.026;2022-07-10T07:15:10;3.37;;;0.90;;
29280;SDS011;25048;49.590;11.026;2022-07-10T07:17:41;2.10;;;0.70;;
29280;SDS011;25048;49.590;11.026;2022-07-10T07:20:27;1.15;;;0.50;;
29280;SDS011;25048;49.590;11.026;2022-07-10T07:23:13;3.37;;;1.02;;
29280;SDS011;25048;49.590;11.026;2022-07-10T07:25:41;1.45;;;0.57;;
29280;SDS011;25048;49.590;11.026;2022-07-10T07:28:10;1.65;;;0.70;;
29280;SDS011;25048;49.590;11.026;2022-07-10T07:30:38;1.65;;;0.62;;
29280;SDS011;25048;49.590;11.026;2022-07-10T07:33:05;2.83;;;0.90;;
29280;SDS011;25048;49.590;11.026;2022-07-10T07:35:33;2.15;;;0.80;;
29280;SDS011;25048;49.590;11.026;2022-07-10T07:38:01;2.00;;;0.70;;
29280;SDS011;25048;49.590;11.026;2022-07-10T07:40:29;1.07;;;0.60;;
29280;SDS011;25048;49.590;11.026;2022-07-10T07:42:56;2.65;;;0.70;;
29280;SDS011;25048;49.590;11.026;2022-07-10T07:45:24;3.10;;;0.70;;
29280;SDS011;25048;49.590;11.026;2022-07-10T07:47:56;1.60;;;0.70;;
29280;SDS011;25048;49.590;11.026;2022-07-10T07:50:29;4.58;;;0.90;;
29280;SDS011;25048;49.590;11.026;2022-07-10T07:53:02;3.52;;;0.75;;
29280;SDS011;25048;49.590;11.026;2022-07-10T07:55:31;3.58;;;0.60;;
29280;SDS011;25048;49.590;11.026;2022-07-10T07:57:59;2.95;;;1.15;;
29280;SDS011;25048;49.590;11.026;2022-07-10T08:00:28;0.85;;;0.60;;
29280;SDS011;25048;49.590;11.026;2022-07-10T08:02:56;2.10;;;0.70;;
29280;SDS011;25048;49.590;11.026;2022-07-10T08:05:26;3.95;;;0.68;;
29280;SDS011;25048;49.590;11.026;2022-07-10T08:07:54;1.70;;;0.70;;
29280;SDS011;25048;49.590;11.026;2022-07-10T08:10:26;1.65;;;0.60;;
29280;SDS011;25048;49.590;11.026;2022-07-10T08:12:54;2.98;;;0.85;;
29280;SDS011;25048;49.590;11.026;2022-07-10T08:15:22;3.27;;;0.70;;
29280;SDS011;25048;49.590;11.026;2022-07-10T08:17:50;7.42;;;0.93;;
29280;SDS011;25048;49.590;11.026;2022-07-10T08:20:19;1.77;;;0.70;;
29280;SDS011;25048;49.590;11.026;2022-07-10T08:22:48;3.12;;;0.70;;
29280;SDS011;25048;49.590;11.026;2022-07-10T08:25:18;3.62;;;0.90;;
29280;SDS011;25048;49.590;11.026;2022-07-10T08:27:45;2.10;;;0.80;;
29280;SDS011;25048;49.590;11.026;2022-07-10T08:30:13;4.00;;;0.75;;
29280;SDS011;25048;49.590;11.026;2022-07-10T08:32:41;3.25;;;0.65;;
29280;SDS011;25048;49.590;11.026;2022-07-10T08:35:09;2.47;;;0.70;;
29280;SDS011;25048;49.590;11.026;2022-07-10T08:37:42;5.55;;;0.85;;
29280;SDS011;25048;49.590;11.026;2022-07-10T08:40:12;0.88;;;0.60;;
29280;SDS011;25048;49.590;11.026;2022-07-10T08:42:41;4.53;;;1.57;;
29280;SDS011;25048;49.590;11.026;2022-07-10T08:45:11;1.00;;;0.78;;
29280;SDS011;25048;49.590;11.026;2022-07-10T08:47:40;1.77;;;0.80;;
29280;SDS011;25048;49.590;11.026;2022-07-10T08:50:15;0.55;;;0.55;;
29280;SDS011;25048;49.590;11.026;2022-07-10T08:52:44;1.80;;;0.60;;
29280;SDS011;25048;49.590;11.026;2022-07-10T08:55:15;0.70;;;0.50;;
29280;SDS011;25048;49.590;11.026;2022-07-10T08:57:43;0.88;;;0.70;;
29280;SDS011;25048;49.590;11.026;2022-07-10T09:00:13;0.90;;;0.50;;
29280;SDS011;25048;49.590;11.026;2022-07-10T09:02:40;0.68;;;0.68;;
29280;SDS011;25048;49.590;11.026;2022-07-10T09:05:08;1.65;;;0.60;;
29280;SDS011;25048;49.590;11.026;2022-07-10T09:07:35;0.65;;;0.55;;
29280;SDS011;25048;49.590;11.026;2022-07-10T09:10:06;1.35;;;0.60;;
29280;SDS011;25048;49.590;11.026;2022-07-10T09:15:24;5.87;;;0.98;;
29280;SDS011;25048;49.590;11.026;2022-07-10T09:17:56;2.25;;;0.68;;
29280;SDS011;25048;49.590;11.026;2022-07-10T09:20:27;1.75;;;1.20;;
29280;SDS011;25048;49.590;11.026;2022-07-10T09:22:57;0.93;;;0.62;;
29280;SDS011;25048;49.590;11.026;2022-07-10T09:25:29;6.40;;;1.00;;
29280;SDS011;25048;49.590;11.026;2022-07-10T09:27:58;4.83;;;0.70;;
29280;SDS011;25048;49.590;11.026;2022-07-10T09:30:34;3.15;;;0.85;;
29280;SDS011;25048;49.590;11.026;2022-07-10T09:33:19;2.15;;;0.75;;
29280;SDS011;25048;49.590;11.026;2022-07-10T09:35:58;1.00;;;0.55;;
29280;SDS011;25048;49.590;11.026;2022-07-10T09:41:30;1.30;;;0.70;;
29280;SDS011;25048;49.590;11.026;2022-07-10T09:43:56;0.68;;;0.65;;
29280;SDS011;25048;49.590;11.026;2022-07-10T09:46:30;1.65;;;0.70;;
29280;SDS011;25048;49.590;11.026;2022-07-10T09:49:04;2.92;;;0.75;;
29280;SDS011;25048;49.590;11.026;2022-07-10T09:51:35;1.55;;;0.70;;
29280;SDS011;25048;49.590;11.026;2022-07-10T09:54:03;2.70;;;0.70;;
29280;SDS011;25048;49.590;11.026;2022-07-10T09:56:38;1.47;;;0.90;;
29280;SDS011;25048;49.590;11.026;2022-07-10T09:59:02;2.47;;;0.90;;
29280;SDS011;25048;49.590;11.026;2022-07-10T10:01:33;1.40;;;0.60;;
29280;SDS011;25048;49.590;11.026;2022-07-10T10:04:03;2.55;;;0.70;;
29280;SDS011;25048;49.590;11.026;2022-07-10T10:06:33;2.85;;;0.80;;
29280;SDS011;25048;49.590;11.026;2022-07-10T10:09:03;3.25;;;0.90;;
29280;SDS011;25048;49.590;11.026;2022-07-10T10:11:33;1.30;;;0.80;;
29280;SDS011;25048;49.590;11.026;2022-07-10T10:14:04;3.67;;;1.00;;
29280;SDS011;25048;49.590;11.026;2022-07-10T10:16:34;2.77;;;0.70;;
29280;SDS011;25048;49.590;11.026;2022-07-10T10:19:02;2.67;;;0.80;;
29280;SDS011;25048;49.590;11.026;2022-07-10T10:21:48;3.98;;;0.93;;
29280;SDS011;25048;49.590;11.026;2022-07-10T10:24:17;1.60;;;0.88;;
29280;SDS011;25048;49.590;11.026;2022-07-10T10:26:45;1.82;;;0.82;;
29280;SDS011;25048;49.590;11.026;2022-07-10T10:29:13;2.65;;;0.82;;
29280;SDS011;25048;49.590;11.026;2022-07-10T10:31:41;1.40;;;0.80;;
29280;SDS011;25048;49.590;11.026;2022-07-10T10:34:10;2.08;;;0.98;;
29280;SDS011;25048;49.590;11.026;2022-07-10T10:39:10;2.35;;;1.27;;
29280;SDS011;25048;49.590;11.026;2022-07-10T10:41:46;5.87;;;0.98;;
29280;SDS011;25048;49.590;11.026;2022-07-10T10:44:21;1.67;;;0.78;;
29280;SDS011;25048;49.590;11.026;2022-07-10T10:49:47;2.95;;;0.98;;
29280;SDS011;25048;49.590;11.026;2022-07-10T10:52:25;3.30;;;0.70;;
29280;SDS011;25048;49.590;11.026;2022-07-10T11:00:03;3.33;;;1.25;;
29280;SDS011;25048;49.590;11.026;2022-07-10T11:02:36;4.87;;;1.05;;
29280;SDS011;25048;49.590;11.026;2022-07-10T11:07:56;1.47;;;0.80;;
29280;SDS011;25048;49.590;11.026;2022-07-10T11:10:29;2.02;;;0.90;;
29280;SDS011;25048;49.590;11.026;2022-07-10T11:13:08;1.90;;;1.00;;
29280;SDS011;25048;49.590;11.026;2022-07-10T11:15:42;1.25;;;0.80;;
29280;SDS011;25048;49.590;11.026;2022-07-10T11:18:15;1.47;;;0.70;;
29280;SDS011;25048;49.590;11.026;2022-07-10T11:20:46;4.22;;;0.72;;
29280;SDS011;25048;49.590;11.026;2022-07-10T11:23:38;1.27;;;0.82;;
29280;SDS011;25048;49.590;11.026;2022-07-10T11:26:11;5.40;;;0.80;;
29280;SDS011;25048;49.590;11.026;2022-07-10T11:28:47;4.00;;;0.68;;
29280;SDS011;25048;49.590;11.026;2022-07-10T11:31:19;1.70;;;0.70;;
29280;SDS011;25048;49.590;11.026;2022-07-10T11:33:54;2.77;;;0.80;;
29280;SDS011;25048;49.590;11.026;2022-07-10T11:36:19;1.90;;;0.60;;
29280;SDS011;25048;49.590;11.026;2022-07-10T11:38:55;1.80;;;0.60;;
29280;SDS011;25048;49.590;11.026;2022-07-10T11:41:25;1.55;;;0.78;;
29280;SDS011;25048;49.590;11.026;2022-07-10T11:43:53;1.12;;;0.75;;
29280;SDS011;25048;49.590;11.026;2022-07-10T11:46:31;1.12;;;0.70;;
29280;SDS011;25048;49.590;11.026;2022-07-10T11:48:55;0.60;;;0.60;;
29280;SDS011;25048;49.590;11.026;2022-07-10T11:51:24;0.72;;;0.60;;
29280;SDS011;25048;49.590;11.026;2022-07-10T11:54:01;1.47;;;0.75;;
29280;SDS011;25048;49.590;11.026;2022-07-10T11:56:33;1.37;;;0.80;;
29280;SDS011;25048;49.590;11.026;2022-07-10T11:59:04;3.62;;;0.60;;
29280;SDS011;25048;49.590;11.026;2022-07-10T12:01:33;1.57;;;0.85;;
29280;SDS011;25048;49.590;11.026;2022-07-10T12:04:03;2.42;;;0.88;;
29280;SDS011;25048;49.590;11.026;2022-07-10T12:06:32;2.98;;;0.70;;
29280;SDS011;25048;49.590;11.026;2022-07-10T12:09:10;0.60;;;0.53;;
29280;SDS011;25048;49.590;11.026;2022-07-10T12:11:41;1.72;;;0.70;;
29280;SDS011;25048;49.590;11.026;2022-07-10T12:14:15;1.10;;;0.70;;
29280;SDS011;25048;49.590;11.026;2022-07-10T12:16:44;2.15;;;0.70;;
29280;SDS011;25048;49.590;11.026;2022-07-10T12:19:14;1.20;;;0.60;;
29280;SDS011;25048;49.590;11.026;2022-07-10T12:21:44;1.85;;;0.70;;
29280;SDS011;25048;49.590;11.026;2022-07-10T12:24:15;1.95;;;0.65;;
29280;SDS011;25048;49.590;11.026;2022-07-10T12:26:45;4.00;;;0.80;;
29280;SDS011;25048;49.590;11.026;2022-07-10T12:29:21;2.30;;;0.72;;
29280;SDS011;25048;49.590;11.026;2022-07-10T12:31:51;2.87;;;1.17;;
29280;SDS011;25048;49.590;11.026;2022-07-10T12:34:36;1.45;;;0.62;;
29280;SDS011;25048;49.590;11.026;2022-07-10T12:37:06;2.33;;;0.70;;
29280;SDS011;25048;49.590;11.026;2022-07-10T12:39:37;0.90;;;0.62;;
29280;SDS011;25048;49.590;11.026;2022-07-10T12:42:26;1.05;;;0.55;;
29280;SDS011;25048;49.590;11.026;2022-07-10T12:45:08;2.27;;;0.93;;
29280;SDS011;25048;49.590;11.026;2022-07-10T12:47:44;1.02;;;0.80;;
29280;SDS011;25048;49.590;11.026;2022-07-10T12:50:13;2.42;;;1.17;;
29280;SDS011;25048;49.590;11.026;2022-07-10T12:52:46;1.75;;;0.80;;
29280;SDS011;25048;49.590;11.026;2022-07-10T12:55:14;2.12;;;1.02;;
29280;SDS011;25048;49.590;11.026;2022-07-10T12:57:53;1.55;;;0.72;;
29280;SDS011;25048;49.590;11.026;2022-07-10T13:00:24;3.52;;;1.02;;
29280;SDS011;25048;49.590;11.026;2022-07-10T13:10:47;4.10;;;1.00;;
29280;SDS011;25048;49.590;11.026;2022-07-10T13:13:15;3.27;;;0.90;;
29280;SDS011;25048;49.590;11.026;2022-07-10T13:15:43;3.08;;;0.80;;
29280;SDS011;25048;49.590;11.026;2022-07-10T13:18:22;3.33;;;1.00;;
29280;SDS011;25048;49.590;11.026;2022-07-10T13:20:52;1.15;;;0.72;;
29280;SDS011;25048;49.590;11.026;2022-07-10T13:23:20;1.92;;;0.80;;
29280;SDS011;25048;49.590;11.026;2022-07-10T13:25:50;2.65;;;0.90;;
29280;SDS011;25048;49.590;11.026;2022-07-10T13:28:18;1.70;;;0.90;;
29280;SDS011;25048;49.590;11.026;2022-07-10T13:30:46;2.17;;;0.80;;
29280;SDS011;25048;49.590;11.026;2022-07-10T13:33:14;1.45;;;0.80;;
29280;SDS011;25048;49.590;11.026;2022-07-10T13:35:41;0.88;;;0.80;;
29280;SDS011;25048;49.590;11.026;2022-07-10T13:38:09;1.80;;;0.93;;
29280;SDS011;25048;49.590;11.026;2022-07-10T13:40:37;2.47;;;0.93;;
29280;SDS011;25048;49.590;11.026;2022-07-10T13:43:05;3.08;;;0.80;;
29280;SDS011;25048;49.590;11.026;2022-07-10T13:45:34;1.60;;;0.98;;
29280;SDS011;25048;49.590;11.026;2022-07-10T13:48:04;2.25;;;0.85;;
29280;SDS011;25048;49.590;11.026;2022-07-10T13:50:31;1.10;;;0.90;;
29280;SDS011;25048;49.590;11.026;2022-07-10T13:52:59;0.80;;;0.80;;
29280;SDS011;25048;49.590;11.026;2022-07-10T13:55:27;0.70;;;0.70;;
29280;SDS011;25048;49.590;11.026;2022-07-10T13:57:55;1.75;;;0.90;;
29280;SDS011;25048;49.590;11.026;2022-07-10T14:00:22;4.62;;;1.05;;
29280;SDS011;25048;49.590;11.026;2022-07-10T14:02:50;1.27;;;0.70;;
29280;SDS011;25048;49.590;11.026;2022-07-10T14:05:21;2.85;;;1.22;;
29280;SDS011;25048;49.590;11.026;2022-07-10T14:07:49;3.02;;;0.93;;
29280;SDS011;25048;49.590;11.026;2022-07-10T14:10:17;2.62;;;0.90;;
29280;SDS011;25048;49.590;11.026;2022-07-10T14:12:44;3.72;;;0.85;;
29280;SDS011;25048;49.590;11.026;2022-07-10T14:15:13;3.10;;;1.15;;
29280;SDS011;25048;49.590;11.026;2022-07-10T14:17:40;1.98;;;0.90;;
29280;SDS011;25048;49.590;11.026;2022-07-10T14:20:09;1.95;;;0.80;;
29280;SDS011;25048;49.590;11.026;2022-07-10T14:22:37;1.57;;;1.02;;
29280;SDS011;25048;49.590;11.026;2022-07-10T14:25:05;1.62;;;0.90;;
29280;SDS011;25048;49.590;11.026;2022-07-10T14:27:36;3.02;;;0.98;;
29280;SDS011;25048;49.590;11.026;2022-07-10T14:30:04;1.50;;;0.90;;
29280;SDS011;25048;49.590;11.026;2022-07-10T14:32:33;5.05;;;1.20;;
29280;SDS011;25048;49.590;11.026;2022-07-10T14:35:00;2.60;;;0.98;;
29280;SDS011;25048;49.590;11.026;2022-07-10T14:37:28;4.53;;;1.17;;
29280;SDS011;25048;49.590;11.026;2022-07-10T14:39:55;1.70;;;1.10;;
29280;SDS011;25048;49.590;11.026;2022-07-10T14:42:23;4.40;;;0.98;;
29280;SDS011;25048;49.590;11.026;2022-07-10T14:44:50;3.72;;;0.93;;
29280;SDS011;25048;49.590;11.026;2022-07-10T14:47:18;4.33;;;1.10;;
29280;SDS011;25048;49.590;11.026;2022-07-10T14:49:45;2.85;;;1.00;;
29280;SDS011;25048;49.590;11.026;2022-07-10T14:52:13;2.83;;;1.15;;
29280;SDS011;25048;49.590;11.026;2022-07-10T14:54:42;2.33;;;1.07;;
29280;SDS011;25048;49.590;11.026;2022-07-10T14:57:10;3.85;;;1.02;;
29280;SDS011;25048;49.590;11.026;2022-07-10T14:59:39;1.98;;;0.80;;
29280;SDS011;25048;49.590;11.026;2022-07-10T15:02:06;1.10;;;1.00;;
29280;SDS011;25048;49.590;11.026;2022-07-10T15:04:34;1.95;;;0.90;;
29280;SDS011;25048;49.590;11.026;2022-07-10T15:07:01;4.33;;;1.02;;
29280;SDS011;25048;49.590;11.026;2022-07-10T15:09:29;3.92;;;0.80;;
29280;SDS011;25048;49.590;11.026;2022-07-10T15:11:57;2.70;;;0.90;;